Time;durP1;ratioP1;P1;durP2;ratioP2;P2;SDS_P1;SDS_P2;PMS_P1;PMS_P2;Temp;Humidity;BMP_temperature;BMP_pressure;BME280_temperature;BME280_humidity;BME280_pressure;Samples;Min_cycle;Max_cycle;Signal;HPM_P1;HPM_P2
2021/06/22 00:01:11;;;;;;;29.88;12.82;;;;;;;;;;5096180;28;20020;-69
2021/06/22 00:03:37;;;;;;;29.95;13.10;;;;;;;;;;5097133;28;20073;-68
2021/06/22 00:06:02;;;;;;;29.55;12.65;;;;;;;;;;5097286;28;20480;-68
2021/06/22 00:08:30;;;;;;;29.88;12.77;;;;;;;;;;5079366;28;20101;-68
2021/06/22 00:10:55;;;;;;;34.22;13.27;;;;;;;;;;5113108;28;20015;-68
2021/06/22 00:13:23;;;;;;;30.00;12.45;;;;;;;;;;5099551;28;20027;-68
2021/06/22 00:15:48;;;;;;;29.73;12.63;;;;;;;;;;5098758;28;20016;-68
2021/06/22 00:18:13;;;;;;;29.35;12.52;;;;;;;;;;5117611;28;20107;-68
2021/06/22 00:20:38;;;;;;;29.85;12.20;;;;;;;;;;5116892;28;20051;-69
2021/06/22 00:23:04;;;;;;;28.92;12.50;;;;;;;;;;5117458;28;20038;-68
2021/06/22 00:25:29;;;;;;;30.17;12.40;;;;;;;;;;5099588;28;20054;-68
2021/06/22 00:27:55;;;;;;;30.88;12.48;;;;;;;;;;5113201;28;20364;-68
2021/06/22 00:30:20;;;;;;;30.17;12.27;;;;;;;;;;5096871;28;20028;-68
2021/06/22 00:32:46;;;;;;;31.27;13.32;;;;;;;;;;5080658;28;20027;-68
2021/06/22 00:35:11;;;;;;;29.58;12.35;;;;;;;;;;5117397;28;20054;-68
2021/06/22 00:37:37;;;;;;;29.77;12.68;;;;;;;;;;5116586;28;20020;-68
2021/06/22 00:40:05;;;;;;;29.65;12.63;;;;;;;;;;5098366;28;20036;-69
2021/06/22 00:42:31;;;;;;;30.13;12.70;;;;;;;;;;5093615;28;20020;-69
2021/06/22 00:44:58;;;;;;;29.87;12.90;;;;;;;;;;5116988;28;20076;-70
2021/06/22 00:47:23;;;;;;;29.83;12.55;;;;;;;;;;5116796;28;20275;-70
2021/06/22 00:49:49;;;;;;;28.77;12.60;;;;;;;;;;5099195;28;20012;-71
2021/06/22 00:52:14;;;;;;;29.23;12.70;;;;;;;;;;5116443;28;20020;-70
2021/06/22 00:54:40;;;;;;;30.10;12.77;;;;;;;;;;5116988;28;20049;-69
2021/06/22 00:57:08;;;;;;;28.85;12.50;;;;;;;;;;5117018;28;20360;-68
2021/06/22 00:59:34;;;;;;;32.35;13.88;;;;;;;;;;5105465;28;20024;-68
2021/06/22 01:02:02;;;;;;;29.58;13.23;;;;;;;;;;5115188;28;20083;-68
2021/06/22 01:04:27;;;;;;;31.05;12.80;;;;;;;;;;5098416;28;20508;-68
2021/06/22 01:06:56;;;;;;;30.50;13.27;;;;;;;;;;5116416;28;20052;-68
2021/06/22 01:09:22;;;;;;;29.42;13.00;;;;;;;;;;5116180;28;20020;-68
2021/06/22 01:11:50;;;;;;;32.13;14.00;;;;;;;;;;5097060;28;20039;-68
2021/06/22 01:14:18;;;;;;;28.95;13.05;;;;;;;;;;5100224;28;20035;-68
2021/06/22 01:16:43;;;;;;;27.65;12.60;;;;;;;;;;5095777;28;20016;-68
2021/06/22 01:19:09;;;;;;;29.17;12.88;;;;;;;;;;5114315;28;20019;-68
2021/06/22 01:21:35;;;;;;;29.92;12.95;;;;;;;;;;5098475;28;20436;-68
2021/06/22 01:24:03;;;;;;;29.30;13.07;;;;;;;;;;5113886;28;20024;-68
2021/06/22 01:26:31;;;;;;;29.83;13.20;;;;;;;;;;5116075;28;20086;-68
2021/06/22 01:28:56;;;;;;;30.13;12.73;;;;;;;;;;5116137;28;20023;-68
2021/06/22 01:31:21;;;;;;;28.17;12.50;;;;;;;;;;5102318;28;20406;-68
2021/06/22 01:33:51;;;;;;;30.00;12.70;;;;;;;;;;5095641;28;20251;-68
2021/06/22 01:36:20;;;;;;;30.17;12.85;;;;;;;;;;5095792;28;20044;-68
2021/06/22 01:38:45;;;;;;;30.38;12.77;;;;;;;;;;5099811;28;20077;-68
2021/06/22 01:41:10;;;;;;;30.67;12.63;;;;;;;;;;5115896;28;20402;-68
2021/06/22 01:43:35;;;;;;;29.80;12.82;;;;;;;;;;5076980;28;20107;-68
2021/06/22 01:46:03;;;;;;;29.50;12.45;;;;;;;;;;5095605;28;20016;-68
2021/06/22 01:48:28;;;;;;;30.33;12.38;;;;;;;;;;5095370;28;20429;-68
2021/06/22 01:50:54;;;;;;;28.52;12.50;;;;;;;;;;5109810;28;20032;-68
2021/06/22 01:53:19;;;;;;;31.17;12.82;;;;;;;;;;5115756;28;20449;-69
2021/06/22 01:55:48;;;;;;;31.40;12.90;;;;;;;;;;5097974;28;20399;-69
2021/06/22 01:58:14;;;;;;;30.88;13.23;;;;;;;;;;5110981;28;20414;-69
2021/06/22 02:00:40;;;;;;;30.20;13.10;;;;;;;;;;5115524;28;20479;-69
2021/06/22 02:03:06;;;;;;;29.30;12.77;;;;;;;;;;5115586;28;20015;-68
2021/06/22 02:05:32;;;;;;;30.90;13.10;;;;;;;;;;5115544;28;20493;-69
2021/06/22 02:07:57;;;;;;;29.90;12.80;;;;;;;;;;5076044;28;20106;-70
2021/06/22 02:10:22;;;;;;;29.33;12.52;;;;;;;;;;5095077;28;20428;-69
2021/06/22 02:12:48;;;;;;;29.52;13.07;;;;;;;;;;5098099;28;20095;-69
2021/06/22 02:15:13;;;;;;;29.63;12.65;;;;;;;;;;5100340;28;20044;-69
2021/06/22 02:17:38;;;;;;;31.20;12.95;;;;;;;;;;5094733;28;20024;-69
2021/06/22 02:20:07;;;;;;;32.35;13.27;;;;;;;;;;5076619;28;20015;-69
2021/06/22 02:22:33;;;;;;;29.95;13.05;;;;;;;;;;5094729;28;20081;-68
2021/06/22 02:25:00;;;;;;;30.65;12.65;;;;;;;;;;5096254;28;20027;-68
2021/06/22 02:27:27;;;;;;;30.70;13.10;;;;;;;;;;5097082;28;20394;-68
2021/06/22 02:29:52;;;;;;;31.55;13.20;;;;;;;;;;5112951;28;20023;-68
2021/06/22 02:32:20;;;;;;;34.13;12.65;;;;;;;;;;5094548;28;20039;-69
2021/06/22 02:34:45;;;;;;;31.95;13.68;;;;;;;;;;5094147;28;20020;-68
2021/06/22 02:37:10;;;;;;;32.75;13.00;;;;;;;;;;5094378;28;20032;-68
2021/06/22 02:39:35;;;;;;;29.88;12.63;;;;;;;;;;5094379;28;20318;-68
2021/06/22 02:42:01;;;;;;;30.13;12.70;;;;;;;;;;5112970;28;20080;-69
2021/06/22 02:44:26;;;;;;;31.98;12.73;;;;;;;;;;5114567;28;20027;-68
2021/06/22 02:46:56;;;;;;;30.40;13.17;;;;;;;;;;5108339;28;20355;-68
2021/06/22 02:49:21;;;;;;;30.17;12.57;;;;;;;;;;5114165;28;20257;-68
2021/06/22 02:51:49;;;;;;;28.42;12.48;;;;;;;;;;5105715;28;20031;-68
2021/06/22 02:54:14;;;;;;;29.88;13.07;;;;;;;;;;5093976;28;20364;-68
2021/06/22 02:56:39;;;;;;;30.37;12.80;;;;;;;;;;5099195;28;20012;-68
2021/06/22 02:59:04;;;;;;;32.77;12.87;;;;;;;;;;5114277;28;20261;-68
2021/06/22 03:01:32;;;;;;;29.92;12.98;;;;;;;;;;5114309;28;20262;-68
2021/06/22 03:03:57;;;;;;;32.17;12.88;;;;;;;;;;5114603;28;20020;-68
2021/06/22 03:06:22;;;;;;;28.67;12.73;;;;;;;;;;5113675;28;20055;-68
2021/06/22 03:08:47;;;;;;;30.92;13.23;;;;;;;;;;5096138;28;20020;-69
2021/06/22 03:11:15;;;;;;;30.02;13.00;;;;;;;;;;5113710;28;20031;-68
2021/06/22 03:13:40;;;;;;;29.65;13.00;;;;;;;;;;5114103;28;20028;-68
2021/06/22 03:16:05;;;;;;;31.20;13.13;;;;;;;;;;5113367;28;20024;-68
2021/06/22 03:18:30;;;;;;;30.03;12.90;;;;;;;;;;5113953;28;20250;-68
2021/06/22 03:20:56;;;;;;;30.87;13.53;;;;;;;;;;5113344;28;20269;-68
2021/06/22 03:23:21;;;;;;;30.37;13.10;;;;;;;;;;5096361;28;20253;-68
2021/06/22 03:25:48;;;;;;;29.90;13.35;;;;;;;;;;5114344;28;20249;-68
2021/06/22 03:28:13;;;;;;;33.10;14.00;;;;;;;;;;5113402;28;20023;-68
2021/06/22 03:30:39;;;;;;;30.20;13.27;;;;;;;;;;5113895;28;20031;-68
2021/06/22 03:33:04;;;;;;;31.60;13.73;;;;;;;;;;5109904;28;20269;-68
2021/06/22 03:35:30;;;;;;;30.92;13.40;;;;;;;;;;5095029;28;20453;-68
2021/06/22 03:37:55;;;;;;;32.97;14.50;;;;;;;;;;5099631;28;20166;-68
2021/06/22 03:40:21;;;;;;;31.75;13.80;;;;;;;;;;5112555;28;20037;-68
2021/06/22 03:42:47;;;;;;;30.88;13.77;;;;;;;;;;5101344;28;20377;-69
2021/06/22 03:45:13;;;;;;;31.15;13.30;;;;;;;;;;5097071;28;20024;-68
2021/06/22 03:47:38;;;;;;;31.13;13.20;;;;;;;;;;5098200;28;20076;-68
2021/06/22 03:50:05;;;;;;;29.77;13.13;;;;;;;;;;5118032;28;20019;-69
2021/06/22 03:52:30;;;;;;;29.70;13.07;;;;;;;;;;5118198;28;20023;-68
2021/06/22 03:54:57;;;;;;;30.35;13.38;;;;;;;;;;5112285;28;20440;-68
2021/06/22 03:57:23;;;;;;;33.10;14.63;;;;;;;;;;5106863;28;20076;-68
2021/06/22 03:59:51;;;;;;;33.95;13.88;;;;;;;;;;5117230;28;20023;-68
2021/06/22 04:02:17;;;;;;;32.17;14.02;;;;;;;;;;5117290;28;20066;-69
2021/06/22 04:04:42;;;;;;;30.65;13.60;;;;;;;;;;5117626;28;20444;-69
2021/06/22 04:07:07;;;;;;;31.73;13.70;;;;;;;;;;5116508;28;20471;-68
2021/06/22 04:09:32;;;;;;;30.90;13.77;;;;;;;;;;5117289;28;20083;-68
2021/06/22 04:12:00;;;;;;;31.30;13.88;;;;;;;;;;5116968;28;20019;-69
2021/06/22 04:14:25;;;;;;;30.40;13.50;;;;;;;;;;5117398;28;20020;-66
2021/06/22 04:16:53;;;;;;;30.73;13.63;;;;;;;;;;5117617;28;20019;-65
2021/06/22 04:19:18;;;;;;;31.30;13.73;;;;;;;;;;5117760;28;20026;-65
2021/06/22 04:21:44;;;;;;;34.47;14.60;;;;;;;;;;5112930;28;20386;-66
2021/06/22 04:24:09;;;;;;;33.42;14.73;;;;;;;;;;5107851;28;20020;-66
2021/06/22 04:26:37;;;;;;;31.75;14.13;;;;;;;;;;5116737;28;20486;-66
2021/06/22 04:29:03;;;;;;;33.78;14.95;;;;;;;;;;5115967;28;20099;-66
2021/06/22 04:31:28;;;;;;;32.10;13.98;;;;;;;;;;5078917;28;20023;-67
2021/06/22 04:33:56;;;;;;;30.65;14.23;;;;;;;;;;5097029;28;20363;-66
2021/06/22 04:36:21;;;;;;;29.77;13.57;;;;;;;;;;5079115;28;20026;-66
2021/06/22 04:38:46;;;;;;;31.58;13.77;;;;;;;;;;5096564;28;20103;-66
2021/06/22 04:41:14;;;;;;;30.48;14.00;;;;;;;;;;5096742;28;20027;-66
2021/06/22 04:43:39;;;;;;;31.42;14.30;;;;;;;;;;5089702;28;20020;-65
2021/06/22 04:46:04;;;;;;;31.23;14.07;;;;;;;;;;5113497;27;20827;-66
2021/06/22 04:48:29;;;;;;;30.38;13.52;;;;;;;;;;5098160;28;20718;-66
2021/06/22 04:50:58;;;;;;;30.97;14.03;;;;;;;;;;5116759;28;20024;-65
2021/06/22 04:53:23;;;;;;;30.70;13.80;;;;;;;;;;5117839;27;20705;-66
2021/06/22 04:55:51;;;;;;;32.63;14.10;;;;;;;;;;5116920;27;20012;-65
2021/06/22 04:58:16;;;;;;;30.30;13.75;;;;;;;;;;5116169;28;20042;-66
2021/06/22 05:00:42;;;;;;;30.92;13.82;;;;;;;;;;5120636;27;20557;-66
2021/06/22 05:03:07;;;;;;;33.75;14.73;;;;;;;;;;5132181;27;20527;-66
2021/06/22 05:05:32;;;;;;;29.75;13.50;;;;;;;;;;5122950;27;20472;-65
2021/06/22 05:07:58;;;;;;;30.92;14.27;;;;;;;;;;5116591;28;20019;-66
2021/06/22 05:10:23;;;;;;;30.30;13.85;;;;;;;;;;5124934;27;20023;-66
2021/06/22 05:12:51;;;;;;;32.28;14.25;;;;;;;;;;5123722;27;20039;-66
2021/06/22 05:15:16;;;;;;;30.65;14.43;;;;;;;;;;5108870;28;20032;-66
2021/06/22 05:17:42;;;;;;;32.45;15.10;;;;;;;;;;5108273;28;20028;-66
2021/06/22 05:20:07;;;;;;;32.65;14.48;;;;;;;;;;5109651;27;20102;-66
2021/06/22 05:22:33;;;;;;;30.75;14.07;;;;;;;;;;5120349;27;20016;-66
2021/06/22 05:25:03;;;;;;;30.92;14.00;;;;;;;;;;5095578;28;20100;-66
2021/06/22 05:27:28;;;;;;;34.22;15.23;;;;;;;;;;5097502;28;20024;-66
2021/06/22 05:29:53;;;;;;;31.43;13.77;;;;;;;;;;5116281;28;20449;-66
2021/06/22 05:32:19;;;;;;;30.13;13.68;;;;;;;;;;5115916;28;20260;-66
2021/06/22 05:34:44;;;;;;;31.02;14.00;;;;;;;;;;5131419;27;20331;-66
2021/06/22 05:37:12;;;;;;;31.95;13.98;;;;;;;;;;5118311;27;20107;-66
2021/06/22 05:39:37;;;;;;;30.70;14.00;;;;;;;;;;5134116;27;20027;-66
2021/06/22 05:42:02;;;;;;;31.98;13.90;;;;;;;;;;5129329;27;20011;-66
2021/06/22 05:44:28;;;;;;;32.05;13.80;;;;;;;;;;5116064;28;20028;-66
2021/06/22 05:46:53;;;;;;;33.33;14.90;;;;;;;;;;5124819;27;20023;-66
2021/06/22 05:49:20;;;;;;;31.80;14.10;;;;;;;;;;5123430;27;20065;-66
2021/06/22 05:51:46;;;;;;;30.83;13.57;;;;;;;;;;5131594;27;20016;-66
2021/06/22 05:54:11;;;;;;;32.58;14.48;;;;;;;;;;5115938;27;20023;-66
2021/06/22 05:56:36;;;;;;;32.60;14.40;;;;;;;;;;5123227;27;20058;-66
2021/06/22 05:59:06;;;;;;;31.90;13.55;;;;;;;;;;5130240;27;20023;-67
2021/06/22 06:01:31;;;;;;;32.25;13.95;;;;;;;;;;5123502;27;20027;-66
2021/06/22 06:03:59;;;;;;;32.17;14.37;;;;;;;;;;5113135;27;20458;-66
2021/06/22 06:06:24;;;;;;;32.38;14.35;;;;;;;;;;5119196;27;20285;-66
2021/06/22 06:08:50;;;;;;;33.60;14.43;;;;;;;;;;5111101;28;20355;-66
2021/06/22 06:11:15;;;;;;;31.17;14.13;;;;;;;;;;5131908;27;20011;-66
2021/06/22 06:13:40;;;;;;;31.07;14.00;;;;;;;;;;5117694;27;20026;-66
2021/06/22 06:16:06;;;;;;;31.38;13.93;;;;;;;;;;5098229;28;20258;-66
2021/06/22 06:18:32;;;;;;;31.45;14.07;;;;;;;;;;5123731;27;20482;-67
2021/06/22 06:20:58;;;;;;;28.85;13.38;;;;;;;;;;5103496;28;20032;-67
2021/06/22 06:23:27;;;;;;;33.20;14.68;;;;;;;;;;5107495;27;20012;-66
2021/06/22 06:25:52;;;;;;;31.90;14.52;;;;;;;;;;5130270;27;20051;-66
2021/06/22 06:28:19;;;;;;;31.95;14.68;;;;;;;;;;5106355;28;20541;-67
2021/06/22 06:30:44;;;;;;;31.23;13.85;;;;;;;;;;5118577;27;20462;-67
2021/06/22 06:33:11;;;;;;;31.70;14.27;;;;;;;;;;5101238;28;20019;-66
2021/06/22 06:35:36;;;;;;;33.92;14.32;;;;;;;;;;5118164;27;20055;-67
2021/06/22 06:38:01;;;;;;;32.40;14.80;;;;;;;;;;5111418;27;20100;-67
2021/06/22 06:40:29;;;;;;;30.55;13.65;;;;;;;;;;5096188;28;20541;-66
2021/06/22 06:42:57;;;;;;;31.33;13.80;;;;;;;;;;5126183;27;20034;-67
2021/06/22 06:45:22;;;;;;;31.20;14.05;;;;;;;;;;5124563;27;20027;-66
2021/06/22 06:47:47;;;;;;;33.55;13.98;;;;;;;;;;5113966;28;20024;-67
2021/06/22 06:50:15;;;;;;;30.92;13.90;;;;;;;;;;5114198;28;20088;-67
2021/06/22 06:52:41;;;;;;;33.80;14.35;;;;;;;;;;5118511;27;20022;-67
2021/06/22 06:55:25;;;;;;;31.13;13.77;;;;;;;;;;5119329;27;20022;-66
2021/06/22 06:57:50;;;;;;;32.13;13.38;;;;;;;;;;5094256;28;20369;-66
2021/06/22 07:00:16;;;;;;;32.22;14.25;;;;;;;;;;5109001;28;20027;-66
2021/06/22 07:02:43;;;;;;;34.47;13.77;;;;;;;;;;5114184;28;20023;-67
2021/06/22 07:05:09;;;;;;;32.67;13.90;;;;;;;;;;5114618;27;20047;-66
2021/06/22 07:07:34;;;;;;;35.05;14.70;;;;;;;;;;5116420;27;20023;-67
2021/06/22 07:09:59;;;;;;;32.27;13.93;;;;;;;;;;5121842;27;20015;-67
2021/06/22 07:12:24;;;;;;;31.60;14.10;;;;;;;;;;5124716;27;20276;-67
2021/06/22 07:14:49;;;;;;;31.52;14.00;;;;;;;;;;5110034;27;20020;-67
2021/06/22 07:17:15;;;;;;;30.80;13.73;;;;;;;;;;5126160;27;20344;-67
2021/06/22 07:19:40;;;;;;;31.00;14.07;;;;;;;;;;5113448;27;20776;-66
2021/06/22 07:22:05;;;;;;;31.38;13.77;;;;;;;;;;5111919;28;20666;-66
2021/06/22 07:24:30;;;;;;;34.60;14.93;;;;;;;;;;5103826;28;20381;-66
2021/06/22 07:26:58;;;;;;;35.00;14.52;;;;;;;;;;5112900;28;20415;-66
2021/06/22 07:29:28;;;;;;;30.77;13.70;;;;;;;;;;5110467;28;20024;-67
2021/06/22 07:31:53;;;;;;;32.95;13.88;;;;;;;;;;5113762;28;20018;-66
2021/06/22 07:34:19;;;;;;;31.40;13.93;;;;;;;;;;5095075;28;20011;-66
2021/06/22 07:36:45;;;;;;;31.25;13.88;;;;;;;;;;5116725;28;20034;-67
2021/06/22 07:39:10;;;;;;;32.70;14.15;;;;;;;;;;5111491;28;20035;-67
2021/06/22 07:41:35;;;;;;;31.48;13.93;;;;;;;;;;5113646;28;20016;-66
2021/06/22 07:44:01;;;;;;;30.02;13.38;;;;;;;;;;5113167;28;20019;-67
2021/06/22 07:46:26;;;;;;;32.28;13.90;;;;;;;;;;5113596;28;20019;-66
2021/06/22 07:48:51;;;;;;;34.78;14.73;;;;;;;;;;5085345;28;20024;-66
2021/06/22 07:51:17;;;;;;;31.48;13.80;;;;;;;;;;5121220;28;20027;-66
2021/06/22 07:53:42;;;;;;;30.73;13.30;;;;;;;;;;5135053;28;20015;-66
2021/06/22 07:56:07;;;;;;;30.80;13.50;;;;;;;;;;5089448;28;20452;-67
2021/06/22 07:58:35;;;;;;;29.42;13.32;;;;;;;;;;5103849;28;20367;-67
2021/06/22 08:01:00;;;;;;;30.88;12.95;;;;;;;;;;5106315;28;20019;-67
2021/06/22 08:03:27;;;;;;;30.25;13.05;;;;;;;;;;5095538;28;20100;-66
2021/06/22 08:05:52;;;;;;;30.63;12.73;;;;;;;;;;5113513;28;20116;-67
2021/06/22 08:08:18;;;;;;;29.83;12.55;;;;;;;;;;5113096;28;20032;-67
2021/06/22 08:10:48;;;;;;;29.63;13.13;;;;;;;;;;5095302;28;20023;-66
2021/06/22 08:13:13;;;;;;;30.38;13.35;;;;;;;;;;5091349;28;20016;-67
2021/06/22 08:15:39;;;;;;;30.38;13.52;;;;;;;;;;5108370;28;20016;-66
2021/06/22 08:18:05;;;;;;;30.55;12.93;;;;;;;;;;5113079;28;20107;-66
2021/06/22 08:20:30;;;;;;;30.42;13.10;;;;;;;;;;5112197;28;20440;-67
2021/06/22 08:22:55;;;;;;;30.17;13.07;;;;;;;;;;5099075;28;20092;-67
2021/06/22 08:25:24;;;;;;;31.77;13.30;;;;;;;;;;5117363;28;20022;-66
2021/06/22 08:27:52;;;;;;;32.72;13.70;;;;;;;;;;5112084;28;20620;-68
2021/06/22 08:30:18;;;;;;;30.50;13.10;;;;;;;;;;5109984;28;20012;-67
2021/06/22 08:32:46;;;;;;;30.92;13.35;;;;;;;;;;5102145;28;20102;-66
2021/06/22 08:35:13;;;;;;;33.42;13.05;;;;;;;;;;5114825;28;20019;-66
2021/06/22 08:37:38;;;;;;;29.75;12.80;;;;;;;;;;5116881;28;20420;-66
2021/06/22 08:40:08;;;;;;;30.40;12.55;;;;;;;;;;5116678;28;20070;-67
2021/06/22 08:42:34;;;;;;;32.90;13.60;;;;;;;;;;5115693;28;20031;-68
2021/06/22 08:44:59;;;;;;;30.98;12.63;;;;;;;;;;5116050;28;20034;-67
2021/06/22 08:47:25;;;;;;;30.38;12.45;;;;;;;;;;5118870;27;20023;-67
2021/06/22 08:49:52;;;;;;;30.55;12.38;;;;;;;;;;5130771;27;20468;-67
2021/06/22 08:52:29;;;;;;;30.35;13.05;;;;;;;;;;5117514;27;20096;-73
2021/06/22 08:54:56;;;;;;;32.95;12.70;;;;;;;;;;5123218;27;20043;-67
2021/06/22 08:57:22;;;;;;;30.67;12.68;;;;;;;;;;5119025;27;20031;-67
2021/06/22 08:59:50;;;;;;;27.30;11.57;;;;;;;;;;5124144;27;20024;-77
2021/06/22 09:02:16;;;;;;;29.23;12.68;;;;;;;;;;5087784;28;20081;-73
2021/06/22 09:04:42;;;;;;;29.58;12.48;;;;;;;;;;5098888;28;20035;-74
2021/06/22 09:07:07;;;;;;;29.73;12.85;;;;;;;;;;5115384;28;20040;-75
2021/06/22 09:09:36;;;;;;;30.52;12.80;;;;;;;;;;5120512;27;20026;-72
2021/06/22 09:12:03;;;;;;;29.40;12.43;;;;;;;;;;5121954;27;20379;-74
2021/06/22 09:14:38;;;;;;;29.73;12.50;;;;;;;;;;5112253;27;20024;-72
2021/06/22 09:17:04;;;;;;;31.52;12.65;;;;;;;;;;5109452;27;20094;-74
2021/06/22 09:19:30;;;;;;;30.27;13.23;;;;;;;;;;5120332;27;20095;-70
2021/06/22 09:21:56;;;;;;;29.98;12.70;;;;;;;;;;5110329;28;20012;-75
2021/06/22 09:24:25;;;;;;;29.17;12.75;;;;;;;;;;5106067;28;20019;-75
2021/06/22 09:26:51;;;;;;;30.98;13.00;;;;;;;;;;5110964;28;20095;-75
2021/06/22 09:29:19;;;;;;;29.60;12.65;;;;;;;;;;5111118;27;20051;-73
2021/06/22 09:31:49;;;;;;;29.48;12.63;;;;;;;;;;5107237;27;20015;-74
2021/06/22 09:34:16;;;;;;;30.15;13.02;;;;;;;;;;5099203;27;20080;-74
2021/06/22 09:36:49;;;;;;;31.08;13.15;;;;;;;;;;5109306;27;20016;-74
2021/06/22 09:39:15;;;;;;;30.77;13.18;;;;;;;;;;5110104;27;20032;-67
2021/06/22 09:41:43;;;;;;;30.70;13.23;;;;;;;;;;5111870;28;20106;-66
2021/06/22 09:44:14;;;;;;;31.45;13.27;;;;;;;;;;5114184;27;20257;-66
2021/06/22 09:46:40;;;;;;;32.13;13.65;;;;;;;;;;5106047;27;20443;-67
2021/06/22 09:49:06;;;;;;;32.65;13.93;;;;;;;;;;5095340;27;20030;-67
2021/06/22 09:51:40;;;;;;;29.27;12.85;;;;;;;;;;5113317;27;20094;-66
2021/06/22 09:54:13;;;;;;;31.25;13.43;;;;;;;;;;5116663;27;20020;-66
2021/06/22 09:56:49;;;;;;;30.58;13.75;;;;;;;;;;5114443;27;20019;-66
2021/06/22 09:59:17;;;;;;;31.95;13.07;;;;;;;;;;5110033;28;20446;-66
2021/06/22 10:01:42;;;;;;;34.35;13.32;;;;;;;;;;5104690;28;20043;-67
2021/06/22 10:04:20;;;;;;;31.45;13.63;;;;;;;;;;5110968;28;20051;-66
2021/06/22 10:07:08;;;;;;;32.95;13.20;;;;;;;;;;5113488;28;20048;-66
2021/06/22 10:09:34;;;;;;;31.80;13.45;;;;;;;;;;5106215;28;20024;-66
2021/06/22 10:12:03;;;;;;;32.10;13.73;;;;;;;;;;5108746;28;20098;-66
2021/06/22 10:14:30;;;;;;;31.35;13.40;;;;;;;;;;5113148;27;20033;-66
2021/06/22 10:16:58;;;;;;;31.33;13.55;;;;;;;;;;5112004;27;20043;-66
2021/06/22 10:19:23;;;;;;;33.53;14.07;;;;;;;;;;5107527;27;20012;-66
2021/06/22 10:21:49;;;;;;;31.33;13.15;;;;;;;;;;5112918;27;20065;-66
2021/06/22 10:24:14;;;;;;;30.00;13.07;;;;;;;;;;5110700;28;20217;-66
2021/06/22 10:26:40;;;;;;;31.15;13.15;;;;;;;;;;5112253;27;20096;-66
2021/06/22 10:29:05;;;;;;;30.83;13.25;;;;;;;;;;5110600;27;20073;-66
2021/06/22 10:31:30;;;;;;;34.23;13.57;;;;;;;;;;5107544;28;20015;-66
2021/06/22 10:33:57;;;;;;;33.33;13.77;;;;;;;;;;5109529;28;20261;-65
2021/06/22 10:36:27;;;;;;;30.17;13.30;;;;;;;;;;5111123;27;20345;-66
2021/06/22 10:38:55;;;;;;;33.08;14.30;;;;;;;;;;5112684;28;20039;-66
2021/06/22 10:41:21;;;;;;;35.03;13.93;;;;;;;;;;5113087;28;20413;-66
2021/06/22 10:43:48;;;;;;;33.38;14.25;;;;;;;;;;5113660;28;20027;-66
2021/06/22 10:46:16;;;;;;;31.80;13.73;;;;;;;;;;5114415;27;20402;-66
2021/06/22 10:48:42;;;;;;;31.05;13.13;;;;;;;;;;5114604;28;20430;-66
2021/06/22 10:51:26;;;;;;;31.15;13.85;;;;;;;;;;5102911;27;20330;-66
2021/06/22 10:53:51;;;;;;;33.00;14.07;;;;;;;;;;5114889;27;20020;-65
2021/06/22 10:56:17;;;;;;;31.67;13.80;;;;;;;;;;5113872;28;20105;-67
2021/06/22 10:59:03;;;;;;;31.98;13.82;;;;;;;;;;5113922;28;20039;-68
2021/06/22 11:01:48;;;;;;;31.50;13.98;;;;;;;;;;5115795;27;20027;-67
2021/06/22 11:04:13;;;;;;;30.88;13.52;;;;;;;;;;5096018;28;20447;-67
2021/06/22 11:06:39;;;;;;;33.17;14.47;;;;;;;;;;5119873;27;20055;-67
2021/06/22 11:09:15;;;;;;;31.10;13.73;;;;;;;;;;5113948;28;20282;-67
2021/06/22 11:11:40;;;;;;;32.72;14.43;;;;;;;;;;5119375;27;20057;-68
2021/06/22 11:14:05;;;;;;;31.42;14.13;;;;;;;;;;5115366;27;20459;-67
2021/06/22 11:16:32;;;;;;;31.45;13.65;;;;;;;;;;5093941;28;20448;-67
2021/06/22 11:19:01;;;;;;;28.67;13.35;;;;;;;;;;5109078;28;20027;-68
2021/06/22 11:21:27;;;;;;;30.30;13.75;;;;;;;;;;5115623;28;20066;-68
2021/06/22 11:23:56;;;;;;;34.88;13.88;;;;;;;;;;5095262;28;20523;-67
2021/06/22 11:26:21;;;;;;;30.60;13.60;;;;;;;;;;5124524;27;20023;-67
2021/06/22 11:28:55;;;;;;;31.80;13.90;;;;;;;;;;5115490;28;20034;-67
2021/06/22 11:31:32;;;;;;;32.60;13.40;;;;;;;;;;5097719;28;20027;-68
2021/06/22 11:34:05;;;;;;;31.60;14.35;;;;;;;;;;5094428;28;20019;-67
2021/06/22 11:36:31;;;;;;;31.08;13.63;;;;;;;;;;5115452;28;20056;-67
2021/06/22 11:39:10;;;;;;;29.98;13.52;;;;;;;;;;5098174;28;20011;-67
2021/06/22 11:41:36;;;;;;;32.08;13.70;;;;;;;;;;5093915;28;20019;-66
2021/06/22 11:44:24;;;;;;;32.30;13.93;;;;;;;;;;5095646;28;20352;-66
2021/06/22 11:46:53;;;;;;;31.38;13.80;;;;;;;;;;5113691;28;20024;-69
2021/06/22 11:49:18;;;;;;;36.88;15.85;;;;;;;;;;5106498;28;20108;-66
2021/06/22 11:51:46;;;;;;;31.52;13.98;;;;;;;;;;5113962;28;20495;-67
2021/06/22 11:54:16;;;;;;;33.05;13.95;;;;;;;;;;5113194;28;20336;-68
2021/06/22 11:56:47;;;;;;;32.03;14.05;;;;;;;;;;5127053;27;20053;-67
2021/06/22 11:59:13;;;;;;;31.05;14.00;;;;;;;;;;5119024;27;20034;-69
2021/06/22 12:01:45;;;;;;;34.55;14.07;;;;;;;;;;5104663;27;20011;-66
2021/06/22 12:04:12;;;;;;;33.17;14.20;;;;;;;;;;5128851;27;20042;-67
2021/06/22 12:06:42;;;;;;;30.52;13.63;;;;;;;;;;5098990;28;20040;-67
2021/06/22 12:09:20;;;;;;;32.25;14.25;;;;;;;;;;5115494;27;20020;-67
2021/06/22 12:11:48;;;;;;;36.35;14.45;;;;;;;;;;5114852;28;20436;-67
2021/06/22 12:14:13;;;;;;;31.08;14.30;;;;;;;;;;5118067;27;20103;-67
2021/06/22 12:16:40;;;;;;;32.97;14.63;;;;;;;;;;5130746;27;20034;-66
2021/06/22 12:19:05;;;;;;;32.88;14.55;;;;;;;;;;5137615;27;20087;-65
2021/06/22 12:21:32;;;;;;;37.40;15.00;;;;;;;;;;5122050;27;20431;-69
2021/06/22 12:24:00;;;;;;;33.85;15.30;;;;;;;;;;5116961;28;20019;-69
2021/06/22 12:26:26;;;;;;;32.15;14.40;;;;;;;;;;5119696;27;20023;-70
2021/06/22 12:28:51;;;;;;;33.25;15.10;;;;;;;;;;5101645;28;20016;-69
2021/06/22 12:31:19;;;;;;;33.90;15.30;;;;;;;;;;5133378;27;20023;-69
2021/06/22 12:33:45;;;;;;;34.75;15.23;;;;;;;;;;5125342;27;20019;-69
2021/06/22 12:36:12;;;;;;;34.28;14.70;;;;;;;;;;5119039;27;20041;-69
2021/06/22 12:38:40;;;;;;;35.58;14.95;;;;;;;;;;5096893;28;20095;-76
2021/06/22 12:41:07;;;;;;;34.38;14.75;;;;;;;;;;5096792;27;20031;-69
2021/06/22 12:43:51;;;;;;;36.03;14.50;;;;;;;;;;5110475;27;20035;-68
2021/06/22 12:46:20;;;;;;;34.65;15.30;;;;;;;;;;5114422;27;20557;-68
2021/06/22 12:48:48;;;;;;;36.80;15.68;;;;;;;;;;5120475;27;20020;-69
2021/06/22 12:51:17;;;;;;;35.05;15.85;;;;;;;;;;5116918;27;20351;-69
2021/06/22 12:53:43;;;;;;;35.25;15.40;;;;;;;;;;5107012;27;20011;-69
2021/06/22 12:56:10;;;;;;;34.92;15.40;;;;;;;;;;5137444;27;20352;-68
2021/06/22 12:58:45;;;;;;;34.10;15.70;;;;;;;;;;5122063;27;20446;-70
2021/06/22 13:01:29;;;;;;;33.67;15.10;;;;;;;;;;5112023;27;20106;-69
2021/06/22 13:03:57;;;;;;;33.78;14.82;;;;;;;;;;5136494;27;20442;-69
2021/06/22 13:06:29;;;;;;;32.30;15.00;;;;;;;;;;5120520;27;20051;-68
2021/06/22 13:08:58;;;;;;;36.17;15.13;;;;;;;;;;5120109;27;20455;-70
2021/06/22 13:11:29;;;;;;;36.85;15.48;;;;;;;;;;5103376;27;20022;-69
2021/06/22 13:14:08;;;;;;;37.88;16.30;;;;;;;;;;5101499;28;20024;-69
2021/06/22 13:16:36;;;;;;;37.85;15.70;;;;;;;;;;5114261;28;20091;-69
2021/06/22 13:19:05;;;;;;;35.05;15.55;;;;;;;;;;5107854;28;20092;-70
2021/06/22 13:22:00;;;;;;;33.70;14.88;;;;;;;;;;5099491;28;20020;-68
2021/06/22 13:24:31;;;;;;;34.45;15.45;;;;;;;;;;5097423;28;20419;-69
2021/06/22 13:27:00;;;;;;;37.33;16.65;;;;;;;;;;5115006;28;20024;-68
2021/06/22 13:29:26;;;;;;;34.78;15.55;;;;;;;;;;5098146;28;20019;-68
2021/06/22 13:31:55;;;;;;;38.55;16.70;;;;;;;;;;5107906;28;20034;-68
2021/06/22 13:34:32;;;;;;;38.33;16.40;;;;;;;;;;5115042;28;20020;-69
2021/06/22 13:37:02;;;;;;;38.22;16.55;;;;;;;;;;5114257;28;20019;-68
2021/06/22 13:39:27;;;;;;;36.35;15.68;;;;;;;;;;5115053;28;20405;-69
2021/06/22 13:42:00;;;;;;;35.38;15.75;;;;;;;;;;5095678;28;20098;-68
2021/06/22 13:44:37;;;;;;;34.67;15.35;;;;;;;;;;5115193;28;21425;-68
2021/06/22 13:47:03;;;;;;;33.75;15.40;;;;;;;;;;5113552;28;20047;-68
2021/06/22 13:49:42;;;;;;;37.10;16.17;;;;;;;;;;5112890;27;20579;-68
2021/06/22 13:52:11;;;;;;;37.28;15.43;;;;;;;;;;5108777;27;20031;-68
2021/06/22 13:54:52;;;;;;;37.72;15.50;;;;;;;;;;5110985;28;20086;-68
2021/06/22 13:57:17;;;;;;;36.42;15.43;;;;;;;;;;5091693;28;20095;-70
2021/06/22 13:59:43;;;;;;;35.07;15.53;;;;;;;;;;5111441;28;20508;-69
2021/06/22 14:02:08;;;;;;;35.35;15.55;;;;;;;;;;5092590;28;20264;-69
2021/06/22 14:04:33;;;;;;;35.63;15.98;;;;;;;;;;5093149;28;20103;-69
2021/06/22 14:06:59;;;;;;;35.83;15.43;;;;;;;;;;5093955;28;20633;-69
2021/06/22 14:09:25;;;;;;;34.67;15.60;;;;;;;;;;5112893;28;20106;-69
2021/06/22 14:11:50;;;;;;;36.88;15.50;;;;;;;;;;5112420;28;20091;-69
2021/06/22 14:14:15;;;;;;;36.33;15.70;;;;;;;;;;5111353;28;20011;-69
2021/06/22 14:16:44;;;;;;;33.35;16.02;;;;;;;;;;5109804;28;20249;-69